Time,TemperatureF,DewpointF,PressureIn,WindDirection,WindDirectionDegrees,WindSpeedMPH,WindSpeedGustMPH,Humidity,HourlyPrecipIn,Conditions,Clouds,dailyrainin,SoftwareType,DateUTC
2013-04-25 00:11:00,43.0,12.0,-100.00,South,169,1.0,3.0,28,-99.99,,,-99.99,,2013-04-25 07:11:00,
2013-04-25 00:21:00,43.0,12.0,-100.00,South,169,1.0,3.0,28,-99.99,,,-99.99,,2013-04-25 07:21:00,
2013-04-25 00:31:00,43.0,14.0,-100.00,SSE,158,1.0,3.0,30,-99.99,,,-99.99,,2013-04-25 07:31:00,
2013-04-25 00:42:00,43.0,14.0,-100.00,SSE,158,1.0,3.0,30,-99.99,,,-99.99,,2013-04-25 07:42:00,
2013-04-25 00:52:00,41.0,13.0,-100.00,SSE,152,1.0,3.0,31,-99.99,,,-99.99,,2013-04-25 07:52:00,
2013-04-25 01:01:00,41.0,13.0,-100.00,SSE,152,1.0,3.0,31,-99.99,,,-99.99,,2013-04-25 08:01:00,
2013-04-25 01:11:00,41.0,13.0,-100.00,SSE,158,1.0,4.0,32,-99.99,,,-99.99,,2013-04-25 08:11:00,
2013-04-25 01:21:00,41.0,13.0,-100.00,SSE,158,1.0,4.0,32,-99.99,,,-99.99,,2013-04-25 08:21:00,
2013-04-25 01:31:00,41.0,16.0,-100.00,SSE,151,1.0,3.0,36,-99.99,,,-99.99,,2013-04-25 08:31:00,
2013-04-25 01:41:00,41.0,16.0,-100.00,SSE,151,1.0,3.0,36,-99.99,,,-99.99,,2013-04-25 08:41:00,
2013-04-25 01:52:00,40.0,14.0,-100.00,SE,136,0.0,2.0,34,-99.99,,,-99.99,,2013-04-25 08:52:00,
2013-04-25 02:01:00,40.0,14.0,-100.00,SE,136,0.0,2.0,34,-99.99,,,-99.99,,2013-04-25 09:01:00,
2013-04-25 02:11:00,40.0,14.0,-100.00,SE,136,0.0,2.0,34,-99.99,,,-99.99,,2013-04-25 09:11:00,
2013-04-25 02:21:00,40.0,13.0,-100.00,SSE,154,1.0,3.0,32,-99.99,,,-99.99,,2013-04-25 09:21:00,
2013-04-25 02:33:00,40.0,15.0,-100.00,SSE,167,2.0,3.0,35,-99.99,,,-99.99,,2013-04-25 09:33:00,
2013-04-25 02:42:00,41.0,15.0,-100.00,SSE,168,2.0,3.0,34,-99.99,,,-99.99,,2013-04-25 09:42:00,
2013-04-25 02:52:00,40.0,15.0,-100.00,South,172,1.0,2.0,36,-99.99,,,-99.99,,2013-04-25 09:52:00,
2013-04-25 03:02:00,40.0,16.0,-100.00,SSE,155,1.0,3.0,38,-99.99,,,-99.99,,2013-04-25 10:02:00,
2013-04-25 03:12:00,38.0,13.0,-100.00,ESE,116,0.0,2.0,35,-99.99,,,-99.99,,2013-04-25 10:12:00,
2013-04-25 03:22:00,39.0,12.0,-100.00,SSE,168,1.0,2.0,33,-99.99,,,-99.99,,2013-04-25 10:22:00,
2013-04-25 03:32:00,39.0,12.0,-100.00,SSE,150,0.0,2.0,33,-99.99,,,-99.99,,2013-04-25 10:32:00,
2013-04-25 03:42:00,39.0,12.0,-100.00,SSE,167,1.0,2.0,32,-99.99,,,-99.99,,2013-04-25 10:42:00,
2013-04-25 03:52:00,38.0,14.0,-100.00,SE,131,0.0,1.0,36,-99.99,,,-99.99,,2013-04-25 10:52:00,
2013-04-25 04:02:00,38.0,14.0,-100.00,SE,131,0.0,1.0,36,-99.99,,,-99.99,,2013-04-25 11:02:00,
2013-04-25 04:12:00,38.0,12.0,-100.00,South,171,1.0,2.0,34,-99.99,,,-99.99,,2013-04-25 11:12:00,
2013-04-25 04:22:00,38.0,12.0,-100.00,South,171,1.0,2.0,34,-99.99,,,-99.99,,2013-04-25 11:22:00,
2013-04-25 04:32:00,38.0,13.0,-100.00,SSE,167,1.0,2.0,35,-99.99,,,-99.99,,2013-04-25 11:32:00,
2013-04-25 04:42:00,38.0,13.0,-100.00,SSE,167,1.0,2.0,35,-99.99,,,-99.99,,2013-04-25 11:42:00,
2013-04-25 04:51:00,37.0,15.0,-100.00,SSE,155,0.0,1.0,41,-99.99,,,-99.99,,2013-04-25 11:51:00,
2013-04-25 05:01:00,37.0,15.0,-100.00,SSE,155,0.0,1.0,41,-99.99,,,-99.99,,2013-04-25 12:01:00,
2013-04-25 05:12:00,37.0,18.0,-100.00,SSE,168,1.0,2.0,45,-99.99,,,-99.99,,2013-04-25 12:12:00,
2013-04-25 05:21:00,37.0,18.0,-100.00,SSE,168,1.0,2.0,45,-99.99,,,-99.99,,2013-04-25 12:21:00,
2013-04-25 05:31:00,37.0,18.0,-100.00,SSE,168,1.0,2.0,45,-99.99,,,-99.99,,2013-04-25 12:31:00,
2013-04-25 05:41:00,37.0,18.0,-100.00,SSE,168,1.0,2.0,45,-99.99,,,-99.99,,2013-04-25 12:41:00,
2013-04-25 05:52:00,37.0,14.0,-100.00,South,169,1.0,2.0,39,-99.99,,,-99.99,,2013-04-25 12:52:00,
2013-04-25 06:02:00,37.0,14.0,-100.00,South,169,1.0,2.0,39,-99.99,,,-99.99,,2013-04-25 13:02:00,
2013-04-25 06:11:00,37.0,13.0,-100.00,SSE,167,2.0,2.0,37,-99.99,,,-99.99,,2013-04-25 13:11:00,
2013-04-25 06:21:00,37.0,13.0,-100.00,SSE,167,2.0,2.0,37,-99.99,,,-99.99,,2013-04-25 13:21:00,
2013-04-25 06:31:00,37.0,14.0,-100.00,SSE,152,1.0,2.0,38,-99.99,,,-99.99,,2013-04-25 13:31:00,
2013-04-25 06:42:00,37.0,14.0,-100.00,SSE,152,1.0,2.0,38,-99.99,,,-99.99,,2013-04-25 13:42:00,
2013-04-25 06:52:00,36.0,12.0,-100.00,SSE,167,1.0,2.0,36,-99.99,,,-99.99,,2013-04-25 13:52:00,
2013-04-25 07:01:00,36.0,12.0,-100.00,SSE,167,1.0,2.0,36,-99.99,,,-99.99,,2013-04-25 14:01:00,
2013-04-25 07:11:00,37.0,13.0,-100.00,South,175,1.0,2.0,37,-99.99,,,-99.99,,2013-04-25 14:11:00,
2013-04-25 07:21:00,37.0,13.0,-100.00,South,175,1.0,2.0,37,-99.99,,,-99.99,,2013-04-25 14:21:00,
2013-04-25 07:32:00,39.0,13.0,-100.00,SSE,168,2.0,3.0,34,-99.99,,,-99.99,,2013-04-25 14:32:00,
2013-04-25 07:52:00,38.0,16.0,-100.00,SSE,152,0.0,2.0,41,-99.99,,,-99.99,,2013-04-25 14:52:00,
2013-04-25 08:02:00,38.0,17.0,-100.00,SSW,196,0.0,4.0,42,-99.99,,,-99.99,,2013-04-25 15:02:00,
2013-04-25 08:11:00,38.0,18.0,-100.00,ESE,117,0.0,2.0,45,-99.99,,,-99.99,,2013-04-25 15:11:00,
2013-04-25 08:21:00,38.0,19.0,-100.00,ESE,116,0.0,3.0,46,-99.99,,,-99.99,,2013-04-25 15:21:00,
2013-04-25 08:33:00,38.0,19.0,-100.00,ESE,116,0.0,3.0,46,-99.99,,,-99.99,,2013-04-25 15:33:00,
2013-04-25 08:42:00,40.0,19.0,-100.00,SSE,161,1.0,2.0,43,-99.99,,,-99.99,,2013-04-25 15:42:00,
2013-04-25 08:53:00,40.0,19.0,-100.00,SSE,161,1.0,2.0,43,-99.99,,,-99.99,,2013-04-25 15:53:00,
2013-04-25 09:02:00,40.0,19.0,-100.00,SSE,161,1.0,2.0,43,-99.99,,,-99.99,,2013-04-25 16:02:00,
2013-04-25 09:13:00,43.0,23.0,-100.00,NW,318,1.0,4.0,45,-99.99,,,-99.99,,2013-04-25 16:13:00,
2013-04-25 09:24:00,43.0,23.0,-100.00,NW,318,1.0,4.0,45,-99.99,,,-99.99,,2013-04-25 16:24:00,
2013-04-25 09:32:00,43.0,28.0,-100.00,West,280,1.0,4.0,56,-99.99,,,-99.99,,2013-04-25 16:32:00,
2013-04-25 09:40:00,44.0,28.0,-100.00,West,263,2.0,5.0,54,-99.99,,,-99.99,,2013-04-25 16:40:00,
2013-04-25 09:52:00,43.0,30.0,-100.00,WNW,295,2.0,4.0,59,-99.99,,,-99.99,,2013-04-25 16:52:00,
2013-04-25 10:02:00,43.0,30.0,-100.00,WNW,295,2.0,4.0,59,-99.99,,,-99.99,,2013-04-25 17:02:00,
2013-04-25 10:11:00,44.0,28.0,-100.00,West,263,2.0,5.0,54,-99.99,,,-99.99,,2013-04-25 17:11:00,
2013-04-25 10:22:00,44.0,28.0,-100.00,West,263,2.0,5.0,54,-99.99,,,-99.99,,2013-04-25 17:22:00,
2013-04-25 10:32:00,44.0,28.0,-100.00,West,263,2.0,5.0,54,-99.99,,,-99.99,,2013-04-25 17:32:00,
2013-04-25 10:53:00,45.0,30.0,-100.00,West,268,2.0,5.0,57,-99.99,,,-99.99,,2013-04-25 17:53:00,
2013-04-25 11:01:00,45.0,30.0,-100.00,West,268,2.0,5.0,57,-99.99,,,-99.99,,2013-04-25 18:01:00,
2013-04-25 11:11:00,46.0,28.0,-100.00,NW,305,1.0,5.0,49,-99.99,,,-99.99,,2013-04-25 18:11:00,
2013-04-25 11:21:00,46.0,28.0,-100.00,NW,305,1.0,5.0,49,-99.99,,,-99.99,,2013-04-25 18:21:00,
2013-04-25 11:32:00,46.0,28.0,-100.00,NW,305,1.0,5.0,49,-99.99,,,-99.99,,2013-04-25 18:32:00,
2013-04-25 11:42:00,46.0,28.0,-100.00,NW,305,1.0,5.0,49,-99.99,,,-99.99,,2013-04-25 18:42:00,
2013-04-25 11:53:00,48.0,23.0,-100.00,West,277,2.0,6.0,36,-99.99,,,-99.99,,2013-04-25 18:53:00,
2013-04-25 12:01:00,48.0,23.0,-100.00,West,277,2.0,6.0,36,-99.99,,,-99.99,,2013-04-25 19:01:00,
2013-04-25 12:12:00,51.0,27.0,-100.00,WNW,287,2.0,4.0,39,-99.99,,,-99.99,,2013-04-25 19:12:00,
2013-04-25 12:21:00,51.0,17.0,-100.00,WNW,296,1.0,4.0,26,-99.99,,,-99.99,,2013-04-25 19:21:00,
2013-04-25 12:31:00,53.0,21.0,-100.00,WNW,288,1.0,4.0,28,-99.99,,,-99.99,,2013-04-25 19:31:00,
2013-04-25 12:41:00,54.0,21.0,-100.00,WNW,301,2.0,4.0,27,-99.99,,,-99.99,,2013-04-25 19:41:00,
2013-04-25 12:52:00,55.0,23.0,-100.00,NNW,330,2.0,5.0,28,-99.99,,,-99.99,,2013-04-25 19:52:00,
2013-04-25 13:01:00,55.0,23.0,-100.00,NW,312,2.0,5.0,29,-99.99,,,-99.99,,2013-04-25 20:01:00,
2013-04-25 13:11:00,55.0,24.0,-100.00,NW,320,2.0,5.0,29,-99.99,,,-99.99,,2013-04-25 20:11:00,
2013-04-25 13:22:00,55.0,24.0,-100.00,NW,320,2.0,5.0,29,-99.99,,,-99.99,,2013-04-25 20:22:00,
2013-04-25 13:32:00,57.0,29.0,-100.00,WNW,296,1.0,3.0,35,-99.99,,,-99.99,,2013-04-25 20:32:00,
2013-04-25 13:42:00,57.0,29.0,-100.00,WNW,296,1.0,3.0,35,-99.99,,,-99.99,,2013-04-25 20:42:00,
2013-04-25 13:52:00,59.0,23.0,-100.00,WNW,287,1.0,5.0,25,-99.99,,,-99.99,,2013-04-25 20:52:00,
2013-04-25 14:01:00,59.0,23.0,-100.00,WNW,287,1.0,5.0,25,-99.99,,,-99.99,,2013-04-25 21:01:00,
2013-04-25 14:11:00,62.0,23.0,-100.00,NW,311,1.0,5.0,22,-99.99,,,-99.99,,2013-04-25 21:11:00,
2013-04-25 14:21:00,62.0,23.0,-100.00,NW,311,1.0,5.0,22,-99.99,,,-99.99,,2013-04-25 21:21:00,
2013-04-25 14:33:00,60.0,23.0,-100.00,WNW,287,2.0,4.0,24,-99.99,,,-99.99,,2013-04-25 21:33:00,
2013-04-25 14:42:00,60.0,23.0,-100.00,WNW,287,2.0,4.0,24,-99.99,,,-99.99,,2013-04-25 21:42:00,
2013-04-25 14:53:00,63.0,22.0,-100.00,WNW,289,2.0,5.0,21,-99.99,,,-99.99,,2013-04-25 21:53:00,
2013-04-25 15:02:00,63.0,22.0,-100.00,WNW,289,2.0,5.0,21,-99.99,,,-99.99,,2013-04-25 22:02:00,
2013-04-25 15:12:00,65.0,21.0,-100.00,NNW,329,1.0,5.0,18,-99.99,,,-99.99,,2013-04-25 22:12:00,
2013-04-25 15:22:00,65.0,21.0,-100.00,NNW,329,1.0,5.0,18,-99.99,,,-99.99,,2013-04-25 22:22:00,
2013-04-25 15:32:00,64.0,20.0,-100.00,North,360,2.0,6.0,18,-99.99,,,-99.99,,2013-04-25 22:32:00,
2013-04-25 15:42:00,64.0,20.0,-100.00,North,360,2.0,6.0,18,-99.99,,,-99.99,,2013-04-25 22:42:00,
2013-04-25 15:53:00,64.0,20.0,-100.00,North,1,2.0,6.0,18,-99.99,,,-99.99,,2013-04-25 22:53:00,
2013-04-25 16:02:00,64.0,20.0,-100.00,North,1,2.0,6.0,18,-99.99,,,-99.99,,2013-04-25 23:02:00,
2013-04-25 16:12:00,64.0,21.0,-100.00,NNE,16,3.0,6.0,19,-99.99,,,-99.99,,2013-04-25 23:12:00,
2013-04-25 16:21:00,65.0,20.0,-100.00,North,10,3.0,6.0,18,-99.99,,,-99.99,,2013-04-25 23:21:00,
2013-04-25 16:32:00,64.0,24.0,-100.00,North,8,2.0,6.0,22,-99.99,,,-99.99,,2013-04-25 23:32:00,
2013-04-25 16:41:00,64.0,24.0,-100.00,NNE,21,3.0,6.0,22,-99.99,,,-99.99,,2013-04-25 23:41:00,
2013-04-25 16:52:00,64.0,27.0,-100.00,North,6,2.0,5.0,25,-99.99,,,-99.99,,2013-04-25 23:52:00,
2013-04-25 17:01:00,62.0,28.0,-100.00,NNE,21,3.0,6.0,27,-99.99,,,-99.99,,2013-04-26 00:01:00,
2013-04-25 17:11:00,63.0,34.0,-100.00,NNE,14,2.0,6.0,34,-99.99,,,-99.99,,2013-04-26 00:11:00,
2013-04-25 17:21:00,62.0,29.0,-100.00,NNE,27,3.0,6.0,29,-99.99,,,-99.99,,2013-04-26 00:21:00,
2013-04-25 17:31:00,60.0,30.0,-100.00,NNE,32,3.0,7.0,31,-99.99,,,-99.99,,2013-04-26 00:31:00,
2013-04-25 17:41:00,60.0,31.0,-100.00,North,10,3.0,7.0,33,-99.99,,,-99.99,,2013-04-26 00:41:00,
2013-04-25 17:51:00,59.0,30.0,-100.00,NNE,23,3.0,7.0,32,-99.99,,,-99.99,,2013-04-26 00:51:00,
2013-04-25 18:01:00,59.0,31.0,-100.00,NE,34,3.0,7.0,35,-99.99,,,-99.99,,2013-04-26 01:01:00,
2013-04-25 18:11:00,59.0,31.0,-100.00,NE,34,3.0,7.0,35,-99.99,,,-99.99,,2013-04-26 01:11:00,
2013-04-25 18:21:00,59.0,32.0,-100.00,NNE,28,3.0,6.0,36,-99.99,,,-99.99,,2013-04-26 01:21:00,
2013-04-25 18:31:00,57.0,33.0,-100.00,NNE,27,3.0,5.0,40,-99.99,,,-99.99,,2013-04-26 01:31:00,
2013-04-25 18:41:00,57.0,33.0,-100.00,NNE,27,3.0,5.0,40,-99.99,,,-99.99,,2013-04-26 01:41:00,
2013-04-25 18:52:00,58.0,29.0,-100.00,NE,38,2.0,5.0,33,-99.99,,,-99.99,,2013-04-26 01:52:00,
2013-04-25 19:01:00,58.0,29.0,-100.00,NE,38,2.0,5.0,33,-99.99,,,-99.99,,2013-04-26 02:01:00,
2013-04-25 19:11:00,56.0,32.0,-100.00,NE,47,2.0,6.0,40,-99.99,,,-99.99,,2013-04-26 02:11:00,
2013-04-25 19:21:00,56.0,32.0,-100.00,NE,47,2.0,6.0,40,-99.99,,,-99.99,,2013-04-26 02:21:00,
2013-04-25 19:32:00,55.0,33.0,-100.00,NE,49,2.0,7.0,43,-99.99,,,-99.99,,2013-04-26 02:32:00,
2013-04-25 19:42:00,55.0,33.0,-100.00,NE,49,2.0,7.0,43,-99.99,,,-99.99,,2013-04-26 02:42:00,
2013-04-25 19:43:00,50.0,32.0,-100.00,SSE,168,1.0,2.0,51,-99.99,,,-99.99,,2013-04-26 02:43:00,
2013-04-25 19:52:00,53.0,32.0,-100.00,NE,38,2.0,6.0,44,-99.99,,,-99.99,,2013-04-26 02:52:00,
2013-04-25 20:01:00,53.0,32.0,-100.00,NE,38,2.0,6.0,44,-99.99,,,-99.99,,2013-04-26 03:01:00,
2013-04-25 20:11:00,50.0,32.0,-100.00,SSE,168,1.0,2.0,51,-99.99,,,-99.99,,2013-04-26 03:11:00,
2013-04-25 20:21:00,50.0,32.0,-100.00,SSE,168,1.0,2.0,51,-99.99,,,-99.99,,2013-04-26 03:21:00,
2013-04-25 20:33:00,50.0,32.0,-100.00,SSE,168,1.0,2.0,51,-99.99,,,-99.99,,2013-04-26 03:33:00,
2013-04-25 21:12:00,49.0,27.0,-100.00,SSE,164,1.0,2.0,42,-99.99,,,-99.99,,2013-04-26 04:12:00,
2013-04-25 21:22:00,48.0,26.0,-100.00,SSE,168,1.0,2.0,42,-99.99,,,-99.99,,2013-04-26 04:22:00,
2013-04-25 21:32:00,48.0,26.0,-100.00,SSE,168,1.0,2.0,42,-99.99,,,-99.99,,2013-04-26 04:32:00,
2013-04-25 21:43:00,48.0,26.0,-100.00,SSE,168,1.0,2.0,42,-99.99,,,-99.99,,2013-04-26 04:43:00,
2013-04-25 21:52:00,48.0,26.0,-100.00,SSE,160,0.0,2.0,43,-99.99,,,-99.99,,2013-04-26 04:52:00,
2013-04-25 22:02:00,48.0,26.0,-100.00,SSE,160,0.0,2.0,43,-99.99,,,-99.99,,2013-04-26 05:02:00,
2013-04-25 22:12:00,47.0,26.0,-100.00,SSE,158,1.0,2.0,43,-99.99,,,-99.99,,2013-04-26 05:12:00,
2013-04-25 22:22:00,47.0,26.0,-100.00,SSE,158,1.0,2.0,43,-99.99,,,-99.99,,2013-04-26 05:22:00,
2013-04-25 22:32:00,47.0,26.0,-100.00,SSE,165,1.0,2.0,44,-99.99,,,-99.99,,2013-04-26 05:32:00,
2013-04-25 22:42:00,47.0,26.0,-100.00,SSE,165,1.0,2.0,44,-99.99,,,-99.99,,2013-04-26 05:42:00,
2013-04-25 22:52:00,45.0,26.0,-100.00,SSE,167,0.0,2.0,46,-99.99,,,-99.99,,2013-04-26 05:52:00,
2013-04-25 23:02:00,45.0,26.0,-100.00,SSE,167,0.0,2.0,46,-99.99,,,-99.99,,2013-04-26 06:02:00,
2013-04-25 23:11:00,45.0,26.0,-100.00,South,169,0.0,2.0,48,-99.99,,,-99.99,,2013-04-26 06:11:00,
2013-04-25 23:21:00,45.0,26.0,-100.00,South,169,0.0,2.0,48,-99.99,,,-99.99,,2013-04-26 06:21:00,
2013-04-25 23:32:00,45.0,26.0,-100.00,South,169,0.0,2.0,48,-99.99,,,-99.99,,2013-04-26 06:32:00,
2013-04-25 23:41:00,45.0,26.0,-100.00,South,169,0.0,2.0,48,-99.99,,,-99.99,,2013-04-26 06:41:00,